createdAt,value
2023-03-26T00:00:07.102Z,2.33
2023-03-26T00:02:33.839Z,2.72
2023-03-26T00:05:00.471Z,4.95
2023-03-26T00:07:27.211Z,5.20
2023-03-26T00:09:53.814Z,3.65
2023-03-26T00:12:20.536Z,7.03
2023-03-26T00:14:47.234Z,2.08
2023-03-26T00:17:15.490Z,2.15
2023-03-26T00:19:42.040Z,4.10
2023-03-26T00:22:08.719Z,5.72
2023-03-26T00:24:35.331Z,2.80
2023-03-26T00:27:01.912Z,4.63
2023-03-26T00:29:28.736Z,2.00
2023-03-26T00:31:55.307Z,6.40
2023-03-26T00:34:23.295Z,7.05
2023-03-26T00:36:49.978Z,5.25
2023-03-26T00:39:16.621Z,4.32
2023-03-26T00:41:43.437Z,2.15
2023-03-26T00:44:10.833Z,2.65
2023-03-26T00:46:37.562Z,5.70
2023-03-26T00:49:04.837Z,3.25
2023-03-26T00:51:33.033Z,2.28
2023-03-26T00:53:59.870Z,3.67
2023-03-26T00:56:26.757Z,5.05
2023-03-26T00:58:53.502Z,6.03
2023-03-26T01:01:25.002Z,3.10
2023-03-26T01:04:05.295Z,3.90
2023-03-26T01:06:38.817Z,3.50
2023-03-26T01:09:14.350Z,4.55
2023-03-26T01:11:41.572Z,2.92
2023-03-26T01:14:12.260Z,4.93
2023-03-26T01:16:43.125Z,5.18
2023-03-26T01:19:17.817Z,2.30
2023-03-26T01:21:45.893Z,5.68
2023-03-26T01:24:14.091Z,5.88
2023-03-26T01:26:53.100Z,4.22
2023-03-26T01:29:25.889Z,2.55
2023-03-26T01:31:59.341Z,2.45
2023-03-26T01:37:05.259Z,5.25
2023-03-26T01:39:41.275Z,3.33
2023-03-26T01:42:11.468Z,2.78
2023-03-26T01:44:44.062Z,2.75
2023-03-26T01:47:12.610Z,9.10
2023-03-26T01:49:39.337Z,2.13
2023-03-26T01:52:13.067Z,3.15
2023-03-26T01:54:41.450Z,4.90
2023-03-26T01:57:17.953Z,2.47
2023-03-26T02:00:01.860Z,2.65
2023-03-26T02:02:36.468Z,2.67
2023-03-26T02:05:12.704Z,2.83
2023-03-26T02:07:43.974Z,1.40
2023-03-26T02:10:15.254Z,1.75
2023-03-26T02:12:43.101Z,2.95
2023-03-26T02:15:11.108Z,2.33
2023-03-26T02:17:37.787Z,3.45
2023-03-26T02:20:05.280Z,1.88
2023-03-26T02:22:31.943Z,3.60
2023-03-26T02:24:58.535Z,5.35
2023-03-26T02:27:26.467Z,9.00
2023-03-26T02:29:53.135Z,4.28
2023-03-26T02:32:19.764Z,2.85
2023-03-26T02:34:46.464Z,3.65
2023-03-26T02:37:13.162Z,2.67
2023-03-26T02:39:39.839Z,2.33
2023-03-26T02:42:06.389Z,4.22
2023-03-26T02:44:34.342Z,4.75
2023-03-26T02:47:00.951Z,4.93
2023-03-26T02:49:27.541Z,5.30
2023-03-26T02:51:54.161Z,6.15
2023-03-26T02:54:21.025Z,4.75
2023-03-26T02:56:47.644Z,2.22
2023-03-26T02:59:14.337Z,3.88
2023-03-26T03:01:42.326Z,5.82
2023-03-26T03:04:09.012Z,4.80
2023-03-26T03:06:36.351Z,5.22
2023-03-26T03:09:03.051Z,4.00
2023-03-26T03:11:29.614Z,1.80
2023-03-26T03:13:56.428Z,6.38
2023-03-26T03:16:23.305Z,5.32
2023-03-26T03:18:51.428Z,6.25
2023-03-26T03:21:17.962Z,5.32
2023-03-26T03:23:44.577Z,4.45
2023-03-26T03:26:14.300Z,4.55
2023-03-26T03:28:41.189Z,5.40
2023-03-26T03:31:07.820Z,7.35
2023-03-26T03:33:34.482Z,3.00
2023-03-26T03:36:02.511Z,3.47
2023-03-26T03:38:29.162Z,3.42
2023-03-26T03:40:55.773Z,5.45
2023-03-26T03:43:22.388Z,3.75
2023-03-26T03:45:49.076Z,6.00
2023-03-26T03:48:15.682Z,5.28
2023-03-26T03:50:42.270Z,3.95
2023-03-26T03:53:10.265Z,7.78
2023-03-26T03:55:36.821Z,7.00
2023-03-26T03:58:03.830Z,3.85
2023-03-26T04:00:30.455Z,5.15
2023-03-26T04:02:57.078Z,4.10
2023-03-26T04:05:23.775Z,5.35
2023-03-26T04:07:50.528Z,4.25
2023-03-26T04:10:18.692Z,3.95
2023-03-26T04:12:45.290Z,5.80
2023-03-26T04:15:11.916Z,6.57
2023-03-26T04:17:38.482Z,8.75
2023-03-26T04:20:06.235Z,4.10
2023-03-26T04:22:32.827Z,5.93
2023-03-26T04:24:59.465Z,3.05
2023-03-26T04:27:31.302Z,5.55
2023-03-26T04:30:00.913Z,2.90
2023-03-26T04:32:30.429Z,8.43
2023-03-26T04:34:57.796Z,4.45
2023-03-26T04:37:26.999Z,1.92
2023-03-26T04:39:53.808Z,5.45
2023-03-26T04:42:20.515Z,2.63
2023-03-26T04:44:48.597Z,4.28
2023-03-26T04:47:15.217Z,4.07
2023-03-26T04:49:41.817Z,3.60
2023-03-26T04:52:10.600Z,5.57
2023-03-26T04:54:37.548Z,6.95
2023-03-26T04:57:08.941Z,4.18
2023-03-26T04:59:35.782Z,4.88
2023-03-26T05:02:05.746Z,5.28
2023-03-26T05:04:33.059Z,7.15
2023-03-26T05:06:59.937Z,5.13
2023-03-26T05:09:27.344Z,4.88
2023-03-26T05:11:54.423Z,8.02
2023-03-26T05:14:21.122Z,5.30
2023-03-26T05:16:49.645Z,5.78
2023-03-26T05:19:17.656Z,5.93
2023-03-26T05:21:44.424Z,4.15
2023-03-26T05:24:11.077Z,4.32
2023-03-26T05:26:37.825Z,4.35
2023-03-26T05:29:04.583Z,4.18
2023-03-26T05:31:31.288Z,4.45
2023-03-26T05:33:58.445Z,4.32
2023-03-26T05:36:26.643Z,5.03
2023-03-26T05:38:53.352Z,5.55
2023-03-26T05:41:20.028Z,6.85
2023-03-26T05:43:46.645Z,8.82
2023-03-26T05:46:14.354Z,7.22
2023-03-26T05:48:41.117Z,3.95
2023-03-26T05:51:08.242Z,5.32
2023-03-26T05:53:36.325Z,4.72
2023-03-26T05:56:03.025Z,3.58
2023-03-26T05:58:31.748Z,5.30
2023-03-26T06:00:58.780Z,4.85
2023-03-26T06:03:26.020Z,8.88
2023-03-26T06:05:52.773Z,5.20
2023-03-26T06:08:19.779Z,7.03
2023-03-26T06:10:48.069Z,3.55
2023-03-26T06:13:14.693Z,8.82
2023-03-26T06:15:41.607Z,5.10
2023-03-26T06:18:08.483Z,7.38
2023-03-26T06:20:35.176Z,5.60
2023-03-26T06:23:01.803Z,8.80
2023-03-26T06:25:28.423Z,5.88
2023-03-26T06:27:56.663Z,6.10
2023-03-26T06:30:23.208Z,5.00
2023-03-26T06:32:49.797Z,9.05
2023-03-26T06:35:16.570Z,8.68
2023-03-26T06:37:43.198Z,3.35
2023-03-26T06:40:10.751Z,7.65
2023-03-26T06:43:09.668Z,6.82
2023-03-26T06:45:25.502Z,4.93
2023-03-26T06:47:52.198Z,3.47
2023-03-26T06:50:19.687Z,3.53
2023-03-26T06:52:46.313Z,4.13
2023-03-26T06:55:14.281Z,4.32
2023-03-26T06:57:40.940Z,5.57
2023-03-26T07:00:09.069Z,5.82
2023-03-26T07:02:37.262Z,6.85
2023-03-26T07:05:04.296Z,5.45
2023-03-26T07:07:30.876Z,5.93
2023-03-26T07:09:57.842Z,3.80
2023-03-26T07:12:24.574Z,5.93
2023-03-26T07:14:51.194Z,5.50
2023-03-26T07:17:17.796Z,3.60
2023-03-26T07:19:45.750Z,8.18
2023-03-26T07:22:18.896Z,9.70
2023-03-26T07:24:46.203Z,6.13
2023-03-26T07:27:27.836Z,5.68
2023-03-26T07:29:59.599Z,5.15
2023-03-26T07:32:32.805Z,5.47
2023-03-26T07:35:08.718Z,5.25
2023-03-26T07:37:48.327Z,7.47
2023-03-26T07:40:28.731Z,9.25
2023-03-26T07:43:06.043Z,10.07
2023-03-26T07:45:39.402Z,4.93
2023-03-26T07:50:38.297Z,7.70
2023-03-26T07:53:05.308Z,9.18
2023-03-26T07:55:32.213Z,10.07
2023-03-26T07:58:09.743Z,4.00
2023-03-26T08:00:43.789Z,3.13
2023-03-26T08:03:31.400Z,7.75
2023-03-26T08:06:11.353Z,9.07
2023-03-26T08:08:47.958Z,7.25
2023-03-26T08:11:26.847Z,8.82
2023-03-26T08:14:04.099Z,3.22
2023-03-26T08:16:38.690Z,8.13
2023-03-26T08:19:15.889Z,4.30
2023-03-26T08:21:50.761Z,8.73
2023-03-26T08:24:23.110Z,6.53
2023-03-26T08:26:58.327Z,6.60
2023-03-26T08:29:33.581Z,7.25
2023-03-26T08:32:01.502Z,4.70
2023-03-26T08:34:28.189Z,6.82
2023-03-26T08:36:56.149Z,5.05
2023-03-26T08:39:22.714Z,4.55
2023-03-26T08:42:19.613Z,4.63
2023-03-26T08:45:20.771Z,5.68
2023-03-26T08:48:20.877Z,4.15
2023-03-26T08:51:18.603Z,7.18
2023-03-26T08:54:25.845Z,7.50
2023-03-26T08:56:57.980Z,6.10
2023-03-26T09:00:09.663Z,4.97
2023-03-26T09:03:04.491Z,8.45
2023-03-26T09:06:04.939Z,11.27
2023-03-26T09:09:08.318Z,4.75
2023-03-26T09:12:12.991Z,6.93
2023-03-26T09:17:50.511Z,4.30
2023-03-26T09:21:05.273Z,8.25
2023-03-26T09:24:13.716Z,3.75
2023-03-26T09:26:48.983Z,6.28
2023-03-26T09:29:46.076Z,7.80
2023-03-26T09:32:38.463Z,4.38
2023-03-26T09:35:19.647Z,6.25
2023-03-26T09:37:58.054Z,5.53
2023-03-26T09:40:35.549Z,5.90
2023-03-26T09:43:37.975Z,8.98
2023-03-26T09:46:21.720Z,9.98
2023-03-26T09:49:07.622Z,4.75
2023-03-26T09:52:01.878Z,4.88
2023-03-26T09:54:48.452Z,7.75
2023-03-26T09:57:26.144Z,9.57
2023-03-26T10:00:08.059Z,8.68
2023-03-26T10:02:56.242Z,5.88
2023-03-26T10:05:49.748Z,5.72
2023-03-26T10:08:41.989Z,8.13
2023-03-26T10:11:18.618Z,5.40
2023-03-26T10:13:58.095Z,7.50
2023-03-26T10:16:32.727Z,11.70
2023-03-26T10:19:20.076Z,9.55
2023-03-26T10:21:56.793Z,8.30
2023-03-26T10:24:38.304Z,12.48
2023-03-26T10:27:30.661Z,12.68
2023-03-26T10:30:39.909Z,8.43
2023-03-26T10:33:19.115Z,9.60
2023-03-26T10:35:59.776Z,11.05
2023-03-26T10:38:41.652Z,7.15
2023-03-26T10:41:16.730Z,8.60
2023-03-26T10:44:08.570Z,8.15
2023-03-26T10:46:59.915Z,11.60
2023-03-26T10:49:54.661Z,8.45
2023-03-26T10:52:25.528Z,6.78
2023-03-26T10:54:56.644Z,6.03
2023-03-26T10:57:34.013Z,7.47
2023-03-26T11:00:12.637Z,7.35
2023-03-26T11:02:44.623Z,6.57
2023-03-26T11:05:34.377Z,9.52
2023-03-26T11:08:10.557Z,5.57
2023-03-26T11:10:47.598Z,6.70
2023-03-26T11:13:21.398Z,8.82
2023-03-26T11:15:56.970Z,8.32
2023-03-26T11:18:32.318Z,4.53
2023-03-26T11:21:19.659Z,9.63
2023-03-26T11:24:05.442Z,6.53
2023-03-26T11:26:44.001Z,10.50
2023-03-26T11:29:31.417Z,16.15
2023-03-26T11:32:05.255Z,8.13
2023-03-26T11:34:37.691Z,5.38
2023-03-26T11:37:12.705Z,6.13
2023-03-26T11:39:48.444Z,8.55
2023-03-26T11:42:17.413Z,7.63
2023-03-26T11:44:48.233Z,8.10
2023-03-26T11:47:21.259Z,10.75
2023-03-26T11:49:51.106Z,4.18
2023-03-26T11:52:17.784Z,9.70
2023-03-26T11:54:45.992Z,6.07
2023-03-26T11:57:17.230Z,4.88
2023-03-26T11:59:57.319Z,7.57
2023-03-26T12:02:27.065Z,7.85
2023-03-26T12:05:10.920Z,7.88
2023-03-26T12:07:45.789Z,7.32
2023-03-26T12:10:24.977Z,7.55
2023-03-26T12:12:54.909Z,6.43
2023-03-26T12:15:22.124Z,5.22
2023-03-26T12:17:50.396Z,9.43
2023-03-26T12:20:33.465Z,2.50
2023-03-26T12:23:01.264Z,5.35
2023-03-26T12:25:31.117Z,3.53
2023-03-26T12:28:00.137Z,7.45
2023-03-26T12:30:28.204Z,5.13
2023-03-26T12:32:57.891Z,5.20
2023-03-26T12:35:26.784Z,2.92
2023-03-26T12:37:54.812Z,7.85
2023-03-26T12:40:31.061Z,2.78
2023-03-26T12:44:46.260Z,9.00
2023-03-26T12:47:54.921Z,5.72
2023-03-26T12:48:37.841Z,8.35
2023-03-26T12:51:12.980Z,8.98
2023-03-26T12:53:59.628Z,4.20
2023-03-26T12:56:31.815Z,5.20
2023-03-26T12:59:16.280Z,5.63
2023-03-26T13:01:53.897Z,5.43
2023-03-26T13:04:37.646Z,5.18
2023-03-26T13:09:47.167Z,3.88
2023-03-26T13:12:29.269Z,4.95
2023-03-26T13:15:05.453Z,9.32
2023-03-26T13:17:39.413Z,4.30
2023-03-26T13:20:11.688Z,5.93
2023-03-26T13:22:47.604Z,5.93
2023-03-26T13:25:25.045Z,3.22
2023-03-26T13:28:02.942Z,3.78
2023-03-26T13:30:36.839Z,7.03
2023-03-26T13:33:23.250Z,6.07
2023-03-26T13:36:14.340Z,6.38
2023-03-26T13:38:59.076Z,6.40
2023-03-26T13:41:38.317Z,5.68
2023-03-26T13:44:20.594Z,7.00
2023-03-26T13:46:52.313Z,6.15
2023-03-26T13:49:24.424Z,3.17
2023-03-26T13:51:56.029Z,5.38
2023-03-26T13:54:28.546Z,4.57
2023-03-26T13:57:01.891Z,7.47
2023-03-26T14:02:05.152Z,5.15
2023-03-26T14:04:37.057Z,7.13
2023-03-26T14:07:12.063Z,6.70
2023-03-26T14:09:45.751Z,4.32
2023-03-26T14:12:24.472Z,2.17
2023-03-26T14:14:55.156Z,4.22
2023-03-26T14:17:26.941Z,4.75
2023-03-26T14:20:23.460Z,5.82
2023-03-26T14:23:04.454Z,4.75
2023-03-26T14:25:45.819Z,5.55
2023-03-26T14:28:31.638Z,5.63
2023-03-26T14:31:14.993Z,4.65
2023-03-26T14:33:59.120Z,6.45
2023-03-26T14:36:43.920Z,5.40
2023-03-26T14:39:39.773Z,2.72
2023-03-26T14:42:17.943Z,6.63
2023-03-26T14:45:20.784Z,3.35
2023-03-26T14:48:07.889Z,5.43
2023-03-26T14:51:01.292Z,5.53
2023-03-26T14:53:33.033Z,3.45
2023-03-26T14:56:38.797Z,6.72
2023-03-26T14:59:50.226Z,7.90
2023-03-26T15:03:02.001Z,3.85
2023-03-26T15:05:51.245Z,5.35
2023-03-26T15:08:56.470Z,6.85
2023-03-26T15:11:29.719Z,7.10
2023-03-26T15:14:06.046Z,7.25
2023-03-26T15:17:13.460Z,4.78
2023-03-26T15:20:15.694Z,5.38
2023-03-26T15:23:23.469Z,6.38
2023-03-26T15:26:26.062Z,5.72
2023-03-26T15:29:19.723Z,5.95
2023-03-26T15:32:25.903Z,5.70
2023-03-26T15:35:19.685Z,5.32
2023-03-26T15:38:37.403Z,5.30
2023-03-26T15:41:16.063Z,6.85
2023-03-26T15:44:24.922Z,7.00
2023-03-26T15:46:59.270Z,6.30
2023-03-26T15:49:36.766Z,3.50
2023-03-26T15:52:15.958Z,8.63
2023-03-26T15:54:51.632Z,6.45
2023-03-26T15:57:28.916Z,2.95
2023-03-26T16:00:29.852Z,7.95
2023-03-26T16:03:19.490Z,5.13
2023-03-26T16:06:07.863Z,7.38
2023-03-26T16:08:43.290Z,5.15
2023-03-26T16:11:10.215Z,4.20
2023-03-26T16:13:38.469Z,5.10
2023-03-26T16:16:23.650Z,5.18
2023-03-26T16:19:18.078Z,6.68
2023-03-26T16:21:55.306Z,5.05
2023-03-26T16:24:30.527Z,5.00
2023-03-26T16:27:03.546Z,3.58
2023-03-26T16:29:31.015Z,6.10
2023-03-26T16:32:15.869Z,5.00
2023-03-26T16:34:50.322Z,3.03
2023-03-26T16:37:41.453Z,2.65
2023-03-26T16:40:33.162Z,4.03
2023-03-26T16:43:27.375Z,4.60
2023-03-26T16:46:03.914Z,5.75
2023-03-26T16:48:38.475Z,5.07
2023-03-26T16:51:13.147Z,8.52
2023-03-26T16:53:47.968Z,5.55
2023-03-26T16:56:28.927Z,5.05
2023-03-26T16:58:59.112Z,8.65
2023-03-26T17:01:39.770Z,7.07
2023-03-26T17:04:12.933Z,7.38
2023-03-26T17:06:55.955Z,9.35
2023-03-26T17:09:31.256Z,5.97
2023-03-26T17:12:06.602Z,6.40
2023-03-26T17:14:50.836Z,3.72
2023-03-26T17:17:38.163Z,6.60
2023-03-26T17:20:16.359Z,4.07
2023-03-26T17:22:47.630Z,6.05
2023-03-26T17:25:28.465Z,7.78
2023-03-26T17:28:15.493Z,7.97
2023-03-26T17:31:02.189Z,5.15
2023-03-26T17:33:32.418Z,7.30
2023-03-26T17:36:27.784Z,5.25
2023-03-26T17:39:03.251Z,5.40
2023-03-26T17:41:49.846Z,9.38
2023-03-26T17:44:45.968Z,6.03
2023-03-26T17:47:31.487Z,10.40
2023-03-26T17:50:07.563Z,8.93
2023-03-26T17:52:45.314Z,7.93
2023-03-26T17:55:17.275Z,11.40
2023-03-26T17:57:47.568Z,10.45
2023-03-26T18:00:20.548Z,6.97
2023-03-26T18:02:53.047Z,6.70
2023-03-26T18:05:21.819Z,8.23
2023-03-26T18:08:23.948Z,12.95
2023-03-26T18:11:20.136Z,8.70
2023-03-26T18:14:10.185Z,13.63
2023-03-26T18:16:41.696Z,16.90
2023-03-26T18:19:13.368Z,16.48
2023-03-26T18:21:40.283Z,22.70
2023-03-26T18:24:13.399Z,18.02
2023-03-26T18:26:42.373Z,25.65
2023-03-26T18:29:17.220Z,20.48
2023-03-26T18:31:48.139Z,23.63
2023-03-26T18:34:16.549Z,17.90
2023-03-26T18:36:43.128Z,16.80
2023-03-26T18:39:12.466Z,20.38
2023-03-26T18:41:41.153Z,17.90
2023-03-26T18:44:14.144Z,14.45
2023-03-26T18:46:41.833Z,17.73
2023-03-26T18:49:13.419Z,16.85
2023-03-26T18:51:54.142Z,12.80
2023-03-26T18:54:24.783Z,17.23
2023-03-26T18:56:51.772Z,12.68
2023-03-26T18:59:25.664Z,13.10
2023-03-26T19:01:52.497Z,12.75
2023-03-26T19:04:21.421Z,12.93
2023-03-26T19:06:48.391Z,14.57
2023-03-26T19:09:30.447Z,8.25
2023-03-26T19:12:04.636Z,11.30
2023-03-26T19:14:31.351Z,8.52
2023-03-26T19:17:00.341Z,12.27
2023-03-26T19:19:32.536Z,10.63
2023-03-26T19:21:59.848Z,8.02
2023-03-26T19:24:27.014Z,13.27
2023-03-26T19:26:53.896Z,16.02
2023-03-26T19:29:25.549Z,11.15
2023-03-26T19:31:52.589Z,13.07
2023-03-26T19:34:26.338Z,9.02
2023-03-26T19:36:56.749Z,14.05
2023-03-26T19:39:36.589Z,13.88
2023-03-26T19:42:05.433Z,11.02
2023-03-26T19:44:32.313Z,12.88
2023-03-26T19:47:02.202Z,13.77
2023-03-26T19:49:30.373Z,16.70
2023-03-26T19:52:11.089Z,15.95
2023-03-26T19:55:00.190Z,16.60
2023-03-26T19:57:32.246Z,11.63
2023-03-26T19:59:59.399Z,9.57
2023-03-26T20:02:26.726Z,8.80
2023-03-26T20:04:53.397Z,13.52
2023-03-26T20:07:22.442Z,16.17
2023-03-26T20:10:03.062Z,18.13
2023-03-26T20:12:29.750Z,21.10
2023-03-26T20:14:56.726Z,17.88
2023-03-26T20:17:23.320Z,23.05
2023-03-26T20:19:49.985Z,23.38
2023-03-26T20:22:18.470Z,18.40
2023-03-26T20:24:46.785Z,13.88
2023-03-26T20:27:14.236Z,20.63
2023-03-26T20:29:41.156Z,15.43
2023-03-26T20:32:17.916Z,16.33
2023-03-26T20:34:44.471Z,19.17
2023-03-26T20:37:11.083Z,26.17
2023-03-26T20:39:37.630Z,17.23
2023-03-26T20:42:05.688Z,14.35
2023-03-26T20:44:32.287Z,16.92
2023-03-26T20:46:58.907Z,23.13
2023-03-26T20:49:25.659Z,17.42
2023-03-26T20:51:52.366Z,14.65
2023-03-26T20:54:20.763Z,16.83
2023-03-26T20:56:47.434Z,20.60
2023-03-26T20:59:18.549Z,16.45
2023-03-26T21:01:45.597Z,13.32
2023-03-26T21:04:12.136Z,18.30
2023-03-26T21:06:38.761Z,18.40
2023-03-26T21:09:06.204Z,16.75
2023-03-26T21:11:45.101Z,12.90
2023-03-26T21:14:19.440Z,12.80
2023-03-26T21:16:46.971Z,14.45
2023-03-26T21:19:14.229Z,23.75
2023-03-26T21:22:06.306Z,19.42
2023-03-26T21:24:45.941Z,21.00
2023-03-26T21:27:20.563Z,15.18
2023-03-26T21:29:49.092Z,15.93
2023-03-26T21:32:16.176Z,15.98
2023-03-26T21:34:55.702Z,18.25
2023-03-26T21:37:25.116Z,14.35
2023-03-26T21:39:52.209Z,15.43
2023-03-26T21:42:19.397Z,14.32
2023-03-26T21:44:48.085Z,19.65
2023-03-26T21:47:15.260Z,7.03
2023-03-26T21:49:42.299Z,11.05
2023-03-26T21:52:12.484Z,16.80
2023-03-26T21:54:41.267Z,9.80
2023-03-26T21:57:23.108Z,10.07
2023-03-26T22:00:02.959Z,11.88
2023-03-26T22:02:40.034Z,16.77
2023-03-26T22:05:13.390Z,18.10
2023-03-26T22:10:11.389Z,11.18
2023-03-26T22:12:37.966Z,17.65
2023-03-26T22:15:07.166Z,18.00
2023-03-26T22:17:33.776Z,15.20
2023-03-26T22:20:00.385Z,9.55
2023-03-26T22:22:27.007Z,9.38
2023-03-26T22:24:53.632Z,12.40
2023-03-26T22:27:20.299Z,11.93
2023-03-26T22:29:46.964Z,15.50
2023-03-26T22:32:15.107Z,18.33
2023-03-26T22:34:41.816Z,11.40
2023-03-26T22:37:08.437Z,14.00
2023-03-26T22:39:35.020Z,9.55
2023-03-26T22:42:02.765Z,9.70
2023-03-26T22:44:29.477Z,6.40
2023-03-26T22:46:56.064Z,8.13
2023-03-26T22:49:24.114Z,21.80
2023-03-26T22:51:50.698Z,16.90
2023-03-26T22:54:17.317Z,6.88
2023-03-26T22:56:44.024Z,9.20
2023-03-26T22:59:10.609Z,9.45
2023-03-26T23:01:37.707Z,12.50
2023-03-26T23:04:04.495Z,6.93
2023-03-26T23:06:32.449Z,9.07
2023-03-26T23:08:59.030Z,10.60
2023-03-26T23:11:25.664Z,12.38
2023-03-26T23:13:52.588Z,9.23
2023-03-26T23:16:19.351Z,6.63
2023-03-26T23:18:46.008Z,9.02
2023-03-26T23:21:14.842Z,10.95
2023-03-26T23:30:32.308Z,4.80
2023-03-26T23:36:27.219Z,8.02
2023-03-26T23:38:53.870Z,8.27
2023-03-26T23:41:22.903Z,8.60
2023-03-26T23:43:53.329Z,9.80
2023-03-26T23:46:25.410Z,11.07
2023-03-26T23:48:52.862Z,10.45
2023-03-26T23:51:20.568Z,13.05
2023-03-26T23:53:48.127Z,7.97
2023-03-26T23:56:14.758Z,11.05
2023-03-26T23:58:41.530Z,18.23
